sensor_id;sensor_type;location;lat;lon;timestamp;P1;durP1;ratioP1;P2;durP2;ratioP2
32872;SDS011;19224;52.462;16.898;2024-03-08T00:02:17;47.80;;;21.87;;
32872;SDS011;19224;52.462;16.898;2024-03-08T00:04:47;49.98;;;21.75;;
32872;SDS011;19224;52.462;16.898;2024-03-08T00:07:18;47.37;;;21.03;;
32872;SDS011;19224;52.462;16.898;2024-03-08T00:09:48;46.02;;;21.42;;
32872;SDS011;19224;52.462;16.898;2024-03-08T00:12:21;42.00;;;20.05;;
32872;SDS011;19224;52.462;16.898;2024-03-08T00:14:53;42.78;;;20.97;;
32872;SDS011;19224;52.462;16.898;2024-03-08T00:17:24;42.15;;;20.35;;
32872;SDS011;19224;52.462;16.898;2024-03-08T00:19:56;43.98;;;21.42;;
32872;SDS011;19224;52.462;16.898;2024-03-08T00:22:26;47.13;;;19.98;;
32872;SDS011;19224;52.462;16.898;2024-03-08T00:24:58;42.08;;;20.02;;
32872;SDS011;19224;52.462;16.898;2024-03-08T00:27:29;46.02;;;21.42;;
32872;SDS011;19224;52.462;16.898;2024-03-08T00:30:00;43.70;;;19.82;;
32872;SDS011;19224;52.462;16.898;2024-03-08T00:32:30;42.55;;;19.27;;
32872;SDS011;19224;52.462;16.898;2024-03-08T00:35:01;42.65;;;20.68;;
32872;SDS011;19224;52.462;16.898;2024-03-08T00:37:34;46.77;;;20.90;;
32872;SDS011;19224;52.462;16.898;2024-03-08T00:40:04;40.78;;;19.20;;
32872;SDS011;19224;52.462;16.898;2024-03-08T00:42:36;46.85;;;19.75;;
32872;SDS011;19224;52.462;16.898;2024-03-08T00:45:09;38.90;;;19.32;;
32872;SDS011;19224;52.462;16.898;2024-03-08T00:47:40;45.92;;;20.02;;
32872;SDS011;19224;52.462;16.898;2024-03-08T00:50:11;41.33;;;19.62;;
32872;SDS011;19224;52.462;16.898;2024-03-08T00:52:42;77.82;;;34.80;;
32872;SDS011;19224;52.462;16.898;2024-03-08T00:55:12;50.60;;;24.47;;
32872;SDS011;19224;52.462;16.898;2024-03-08T00:57:43;44.03;;;20.25;;
32872;SDS011;19224;52.462;16.898;2024-03-08T01:00:14;39.23;;;18.55;;
32872;SDS011;19224;52.462;16.898;2024-03-08T01:02:49;38.75;;;19.67;;
32872;SDS011;19224;52.462;16.898;2024-03-08T01:05:19;39.75;;;19.17;;
32872;SDS011;19224;52.462;16.898;2024-03-08T01:07:52;37.65;;;18.42;;
32872;SDS011;19224;52.462;16.898;2024-03-08T01:10:24;44.75;;;19.52;;
32872;SDS011;19224;52.462;16.898;2024-03-08T01:12:54;38.88;;;19.23;;
32872;SDS011;19224;52.462;16.898;2024-03-08T01:15:26;49.08;;;20.05;;
32872;SDS011;19224;52.462;16.898;2024-03-08T01:17:58;43.08;;;19.30;;
32872;SDS011;19224;52.462;16.898;2024-03-08T01:20:29;38.30;;;18.60;;
32872;SDS011;19224;52.462;16.898;2024-03-08T01:22:59;42.10;;;18.82;;
32872;SDS011;19224;52.462;16.898;2024-03-08T01:25:31;37.98;;;18.67;;
32872;SDS011;19224;52.462;16.898;2024-03-08T01:28:02;37.50;;;18.25;;
32872;SDS011;19224;52.462;16.898;2024-03-08T01:30:33;38.23;;;19.48;;
32872;SDS011;19224;52.462;16.898;2024-03-08T01:33:05;36.60;;;18.80;;
32872;SDS011;19224;52.462;16.898;2024-03-08T01:35:35;38.15;;;19.25;;
32872;SDS011;19224;52.462;16.898;2024-03-08T01:38:07;35.28;;;18.00;;
32872;SDS011;19224;52.462;16.898;2024-03-08T01:40:37;36.23;;;17.75;;
32872;SDS011;19224;52.462;16.898;2024-03-08T01:45:52;38.55;;;18.87;;
32872;SDS011;19224;52.462;16.898;2024-03-08T01:48:24;37.48;;;18.25;;
32872;SDS011;19224;52.462;16.898;2024-03-08T01:50:57;36.65;;;19.02;;
32872;SDS011;19224;52.462;16.898;2024-03-08T01:53:28;36.10;;;18.77;;
32872;SDS011;19224;52.462;16.898;2024-03-08T01:55:59;42.53;;;17.75;;
32872;SDS011;19224;52.462;16.898;2024-03-08T01:58:31;35.75;;;17.98;;
32872;SDS011;19224;52.462;16.898;2024-03-08T02:01:02;42.20;;;19.03;;
32872;SDS011;19224;52.462;16.898;2024-03-08T02:03:32;38.17;;;18.23;;
32872;SDS011;19224;52.462;16.898;2024-03-08T02:06:03;38.45;;;20.50;;
32872;SDS011;19224;52.462;16.898;2024-03-08T02:08:36;42.10;;;18.43;;
32872;SDS011;19224;52.462;16.898;2024-03-08T02:11:06;39.53;;;18.80;;
32872;SDS011;19224;52.462;16.898;2024-03-08T02:13:37;41.50;;;18.80;;
32872;SDS011;19224;52.462;16.898;2024-03-08T02:16:07;40.45;;;18.12;;
32872;SDS011;19224;52.462;16.898;2024-03-08T02:18:40;40.25;;;18.77;;
32872;SDS011;19224;52.462;16.898;2024-03-08T02:21:10;47.13;;;18.50;;
32872;SDS011;19224;52.462;16.898;2024-03-08T02:23:41;40.45;;;19.15;;
32872;SDS011;19224;52.462;16.898;2024-03-08T02:26:14;36.97;;;18.83;;
32872;SDS011;19224;52.462;16.898;2024-03-08T02:28:45;41.58;;;19.98;;
32872;SDS011;19224;52.462;16.898;2024-03-08T02:31:19;37.97;;;18.40;;
32872;SDS011;19224;52.462;16.898;2024-03-08T02:33:56;38.35;;;18.55;;
32872;SDS011;19224;52.462;16.898;2024-03-08T02:36:27;38.33;;;17.77;;
32872;SDS011;19224;52.462;16.898;2024-03-08T02:38:57;37.48;;;18.35;;
32872;SDS011;19224;52.462;16.898;2024-03-08T02:41:28;39.00;;;18.05;;
32872;SDS011;19224;52.462;16.898;2024-03-08T02:43:59;40.78;;;18.90;;
32872;SDS011;19224;52.462;16.898;2024-03-08T02:46:29;39.13;;;18.85;;
32872;SDS011;19224;52.462;16.898;2024-03-08T02:49:00;38.38;;;18.00;;
32872;SDS011;19224;52.462;16.898;2024-03-08T02:51:30;37.50;;;17.98;;
32872;SDS011;19224;52.462;16.898;2024-03-08T02:54:03;36.85;;;17.95;;
32872;SDS011;19224;52.462;16.898;2024-03-08T02:56:33;40.23;;;19.30;;
32872;SDS011;19224;52.462;16.898;2024-03-08T02:59:04;36.65;;;18.15;;
32872;SDS011;19224;52.462;16.898;2024-03-08T03:01:34;36.70;;;18.55;;
32872;SDS011;19224;52.462;16.898;2024-03-08T03:04:06;37.33;;;19.07;;
32872;SDS011;19224;52.462;16.898;2024-03-08T03:06:36;37.65;;;18.55;;
32872;SDS011;19224;52.462;16.898;2024-03-08T03:09:06;42.73;;;19.82;;
32872;SDS011;19224;52.462;16.898;2024-03-08T03:11:38;39.78;;;19.75;;
32872;SDS011;19224;52.462;16.898;2024-03-08T03:14:08;43.02;;;19.60;;
32872;SDS011;19224;52.462;16.898;2024-03-08T03:16:39;42.35;;;19.52;;
32872;SDS011;19224;52.462;16.898;2024-03-08T03:19:10;39.75;;;19.55;;
32872;SDS011;19224;52.462;16.898;2024-03-08T03:21:42;41.10;;;19.60;;
32872;SDS011;19224;52.462;16.898;2024-03-08T03:24:12;42.75;;;19.67;;
32872;SDS011;19224;52.462;16.898;2024-03-08T03:26:44;37.38;;;18.80;;
32872;SDS011;19224;52.462;16.898;2024-03-08T03:29:16;41.48;;;19.60;;
32872;SDS011;19224;52.462;16.898;2024-03-08T03:31:48;38.70;;;19.67;;
32872;SDS011;19224;52.462;16.898;2024-03-08T03:34:19;42.38;;;19.55;;
32872;SDS011;19224;52.462;16.898;2024-03-08T03:36:50;35.43;;;19.30;;
32872;SDS011;19224;52.462;16.898;2024-03-08T03:39:22;37.17;;;18.90;;
32872;SDS011;19224;52.462;16.898;2024-03-08T03:41:52;38.38;;;19.30;;
32872;SDS011;19224;52.462;16.898;2024-03-08T03:44:22;42.40;;;19.93;;
32872;SDS011;19224;52.462;16.898;2024-03-08T03:46:54;41.30;;;19.55;;
32872;SDS011;19224;52.462;16.898;2024-03-08T03:49:24;44.83;;;19.77;;
32872;SDS011;19224;52.462;16.898;2024-03-08T03:51:56;35.03;;;18.45;;
32872;SDS011;19224;52.462;16.898;2024-03-08T03:54:27;43.52;;;19.67;;
32872;SDS011;19224;52.462;16.898;2024-03-08T03:56:58;42.07;;;19.33;;
32872;SDS011;19224;52.462;16.898;2024-03-08T03:59:29;40.80;;;19.70;;
32872;SDS011;19224;52.462;16.898;2024-03-08T04:01:59;39.42;;;20.48;;
32872;SDS011;19224;52.462;16.898;2024-03-08T04:04:31;40.33;;;19.20;;
32872;SDS011;19224;52.462;16.898;2024-03-08T04:07:02;43.45;;;20.20;;
32872;SDS011;19224;52.462;16.898;2024-03-08T04:09:34;43.58;;;20.10;;
32872;SDS011;19224;52.462;16.898;2024-03-08T04:12:05;47.20;;;20.75;;
32872;SDS011;19224;52.462;16.898;2024-03-08T04:14:38;44.17;;;20.13;;
32872;SDS011;19224;52.462;16.898;2024-03-08T04:17:11;38.97;;;19.07;;
32872;SDS011;19224;52.462;16.898;2024-03-08T04:19:42;39.40;;;19.53;;
32872;SDS011;19224;52.462;16.898;2024-03-08T04:22:12;41.90;;;19.60;;
32872;SDS011;19224;52.462;16.898;2024-03-08T04:24:45;43.85;;;20.12;;
32872;SDS011;19224;52.462;16.898;2024-03-08T04:27:15;45.92;;;20.65;;
32872;SDS011;19224;52.462;16.898;2024-03-08T04:29:47;39.23;;;19.25;;
32872;SDS011;19224;52.462;16.898;2024-03-08T04:32:17;41.30;;;20.10;;
32872;SDS011;19224;52.462;16.898;2024-03-08T04:34:47;39.83;;;20.55;;
32872;SDS011;19224;52.462;16.898;2024-03-08T04:37:18;38.67;;;20.20;;
32872;SDS011;19224;52.462;16.898;2024-03-08T04:39:49;44.87;;;20.93;;
32872;SDS011;19224;52.462;16.898;2024-03-08T04:42:20;43.17;;;20.30;;
32872;SDS011;19224;52.462;16.898;2024-03-08T04:44:52;46.90;;;20.77;;
32872;SDS011;19224;52.462;16.898;2024-03-08T04:47:24;62.27;;;27.33;;
32872;SDS011;19224;52.462;16.898;2024-03-08T04:49:55;45.98;;;21.62;;
32872;SDS011;19224;52.462;16.898;2024-03-08T04:52:26;42.47;;;20.70;;
32872;SDS011;19224;52.462;16.898;2024-03-08T04:54:56;41.80;;;20.70;;
32872;SDS011;19224;52.462;16.898;2024-03-08T04:57:26;42.98;;;21.33;;
32872;SDS011;19224;52.462;16.898;2024-03-08T04:59:57;39.37;;;20.03;;
32872;SDS011;19224;52.462;16.898;2024-03-08T05:02:27;46.37;;;21.83;;
32872;SDS011;19224;52.462;16.898;2024-03-08T05:04:57;42.83;;;20.67;;
32872;SDS011;19224;52.462;16.898;2024-03-08T05:07:28;44.85;;;20.90;;
32872;SDS011;19224;52.462;16.898;2024-03-08T05:10:00;43.05;;;20.90;;
32872;SDS011;19224;52.462;16.898;2024-03-08T05:12:31;43.38;;;20.72;;
32872;SDS011;19224;52.462;16.898;2024-03-08T05:15:03;38.95;;;19.62;;
32872;SDS011;19224;52.462;16.898;2024-03-08T05:17:35;46.45;;;22.40;;
32872;SDS011;19224;52.462;16.898;2024-03-08T05:20:06;45.07;;;21.97;;
32872;SDS011;19224;52.462;16.898;2024-03-08T05:22:40;39.85;;;20.48;;
32872;SDS011;19224;52.462;16.898;2024-03-08T05:25:10;44.88;;;21.02;;
32872;SDS011;19224;52.462;16.898;2024-03-08T05:27:41;44.95;;;20.70;;
32872;SDS011;19224;52.462;16.898;2024-03-08T05:30:12;42.70;;;20.73;;
32872;SDS011;19224;52.462;16.898;2024-03-08T05:32:42;44.23;;;20.88;;
32872;SDS011;19224;52.462;16.898;2024-03-08T05:35:13;50.88;;;21.02;;
32872;SDS011;19224;52.462;16.898;2024-03-08T05:37:44;45.38;;;21.48;;
32872;SDS011;19224;52.462;16.898;2024-03-08T05:40:14;42.70;;;20.60;;
32872;SDS011;19224;52.462;16.898;2024-03-08T05:42:45;46.35;;;21.57;;
32872;SDS011;19224;52.462;16.898;2024-03-08T05:45:15;48.87;;;23.05;;
32872;SDS011;19224;52.462;16.898;2024-03-08T05:47:47;48.33;;;22.02;;
32872;SDS011;19224;52.462;16.898;2024-03-08T05:50:19;50.10;;;22.42;;
32872;SDS011;19224;52.462;16.898;2024-03-08T05:52:49;46.58;;;22.42;;
32872;SDS011;19224;52.462;16.898;2024-03-08T05:55:24;46.00;;;21.55;;
32872;SDS011;19224;52.462;16.898;2024-03-08T05:57:55;45.50;;;21.43;;
32872;SDS011;19224;52.462;16.898;2024-03-08T06:00:27;46.02;;;22.13;;
32872;SDS011;19224;52.462;16.898;2024-03-08T06:02:59;46.83;;;22.60;;
32872;SDS011;19224;52.462;16.898;2024-03-08T06:05:30;47.63;;;22.33;;
32872;SDS011;19224;52.462;16.898;2024-03-08T06:08:01;50.08;;;21.30;;
32872;SDS011;19224;52.462;16.898;2024-03-08T06:10:32;51.30;;;22.22;;
32872;SDS011;19224;52.462;16.898;2024-03-08T06:13:03;49.98;;;23.20;;
32872;SDS011;19224;52.462;16.898;2024-03-08T06:15:35;50.00;;;23.38;;
32872;SDS011;19224;52.462;16.898;2024-03-08T06:18:13;47.67;;;22.48;;
32872;SDS011;19224;52.462;16.898;2024-03-08T06:20:39;50.23;;;23.60;;
32872;SDS011;19224;52.462;16.898;2024-03-08T06:23:11;50.28;;;23.92;;
32872;SDS011;19224;52.462;16.898;2024-03-08T06:25:46;47.53;;;23.15;;
32872;SDS011;19224;52.462;16.898;2024-03-08T06:28:16;43.00;;;22.10;;
32872;SDS011;19224;52.462;16.898;2024-03-08T06:30:48;47.63;;;23.67;;
32872;SDS011;19224;52.462;16.898;2024-03-08T06:33:19;51.15;;;23.18;;
32872;SDS011;19224;52.462;16.898;2024-03-08T06:35:49;55.05;;;24.05;;
32872;SDS011;19224;52.462;16.898;2024-03-08T06:38:20;52.13;;;24.27;;
32872;SDS011;19224;52.462;16.898;2024-03-08T06:40:50;51.65;;;24.50;;
32872;SDS011;19224;52.462;16.898;2024-03-08T06:43:22;53.23;;;25.88;;
32872;SDS011;19224;52.462;16.898;2024-03-08T06:45:54;59.33;;;26.57;;
32872;SDS011;19224;52.462;16.898;2024-03-08T06:48:24;52.03;;;25.08;;
32872;SDS011;19224;52.462;16.898;2024-03-08T06:50:54;55.65;;;24.40;;
32872;SDS011;19224;52.462;16.898;2024-03-08T06:53:29;53.90;;;23.65;;
32872;SDS011;19224;52.462;16.898;2024-03-08T06:55:58;56.35;;;26.73;;
32872;SDS011;19224;52.462;16.898;2024-03-08T06:58:29;58.55;;;26.48;;
32872;SDS011;19224;52.462;16.898;2024-03-08T07:01:01;51.60;;;25.80;;
32872;SDS011;19224;52.462;16.898;2024-03-08T07:03:33;57.27;;;24.72;;
32872;SDS011;19224;52.462;16.898;2024-03-08T07:06:04;53.95;;;25.97;;
32872;SDS011;19224;52.462;16.898;2024-03-08T07:08:35;61.70;;;26.40;;
32872;SDS011;19224;52.462;16.898;2024-03-08T07:11:09;53.98;;;25.57;;
32872;SDS011;19224;52.462;16.898;2024-03-08T07:13:42;56.42;;;25.40;;
32872;SDS011;19224;52.462;16.898;2024-03-08T07:16:15;57.75;;;26.17;;
32872;SDS011;19224;52.462;16.898;2024-03-08T07:18:49;56.92;;;27.48;;
32872;SDS011;19224;52.462;16.898;2024-03-08T07:21:20;53.15;;;25.57;;
32872;SDS011;19224;52.462;16.898;2024-03-08T07:23:52;55.98;;;25.45;;
32872;SDS011;19224;52.462;16.898;2024-03-08T07:26:28;56.70;;;26.60;;
32872;SDS011;19224;52.462;16.898;2024-03-08T07:28:59;61.18;;;28.75;;
32872;SDS011;19224;52.462;16.898;2024-03-08T07:31:29;63.58;;;27.77;;
32872;SDS011;19224;52.462;16.898;2024-03-08T07:34:01;56.53;;;27.17;;
32872;SDS011;19224;52.462;16.898;2024-03-08T07:36:34;60.92;;;25.65;;
32872;SDS011;19224;52.462;16.898;2024-03-08T07:39:04;55.85;;;25.55;;
32872;SDS011;19224;52.462;16.898;2024-03-08T07:41:37;61.77;;;25.90;;
32872;SDS011;19224;52.462;16.898;2024-03-08T07:44:10;57.00;;;25.00;;
32872;SDS011;19224;52.462;16.898;2024-03-08T07:46:42;53.83;;;24.32;;
32872;SDS011;19224;52.462;16.898;2024-03-08T07:49:12;54.00;;;24.82;;
32872;SDS011;19224;52.462;16.898;2024-03-08T07:51:42;50.25;;;24.77;;
32872;SDS011;19224;52.462;16.898;2024-03-08T07:54:13;46.08;;;22.90;;
32872;SDS011;19224;52.462;16.898;2024-03-08T07:56:43;49.27;;;22.70;;
32872;SDS011;19224;52.462;16.898;2024-03-08T07:59:14;53.25;;;23.52;;
32872;SDS011;19224;52.462;16.898;2024-03-08T08:01:45;47.85;;;22.77;;
32872;SDS011;19224;52.462;16.898;2024-03-08T08:04:15;49.05;;;22.15;;
32872;SDS011;19224;52.462;16.898;2024-03-08T08:06:47;44.80;;;21.87;;
32872;SDS011;19224;52.462;16.898;2024-03-08T08:09:21;54.55;;;22.10;;
32872;SDS011;19224;52.462;16.898;2024-03-08T08:12:03;47.50;;;23.05;;
32872;SDS011;19224;52.462;16.898;2024-03-08T08:14:41;46.70;;;22.48;;
32872;SDS011;19224;52.462;16.898;2024-03-08T08:17:11;45.55;;;21.50;;
32872;SDS011;19224;52.462;16.898;2024-03-08T08:19:42;55.98;;;22.30;;
32872;SDS011;19224;52.462;16.898;2024-03-08T08:22:12;47.85;;;22.32;;
32872;SDS011;19224;52.462;16.898;2024-03-08T08:24:45;41.60;;;21.33;;
32872;SDS011;19224;52.462;16.898;2024-03-08T08:27:15;42.23;;;21.30;;
32872;SDS011;19224;52.462;16.898;2024-03-08T08:29:46;45.85;;;21.77;;
32872;SDS011;19224;52.462;16.898;2024-03-08T08:32:17;42.43;;;21.48;;
32872;SDS011;19224;52.462;16.898;2024-03-08T08:34:47;44.40;;;22.13;;
32872;SDS011;19224;52.462;16.898;2024-03-08T08:37:18;57.27;;;22.65;;
32872;SDS011;19224;52.462;16.898;2024-03-08T08:39:48;41.33;;;21.77;;
32872;SDS011;19224;52.462;16.898;2024-03-08T08:42:20;44.90;;;22.02;;
32872;SDS011;19224;52.462;16.898;2024-03-08T08:44:51;46.90;;;22.07;;
32872;SDS011;19224;52.462;16.898;2024-03-08T08:47:24;46.98;;;21.82;;
32872;SDS011;19224;52.462;16.898;2024-03-08T08:49:56;39.92;;;21.33;;
32872;SDS011;19224;52.462;16.898;2024-03-08T08:52:30;45.67;;;20.25;;
32872;SDS011;19224;52.462;16.898;2024-03-08T08:55:03;43.38;;;21.40;;
32872;SDS011;19224;52.462;16.898;2024-03-08T08:57:34;40.15;;;21.60;;
32872;SDS011;19224;52.462;16.898;2024-03-08T09:00:13;40.20;;;18.92;;
32872;SDS011;19224;52.462;16.898;2024-03-08T09:02:43;38.73;;;19.40;;
32872;SDS011;19224;52.462;16.898;2024-03-08T09:05:13;33.30;;;17.45;;
32872;SDS011;19224;52.462;16.898;2024-03-08T09:07:44;36.28;;;18.80;;
32872;SDS011;19224;52.462;16.898;2024-03-08T09:10:15;40.67;;;17.52;;
32872;SDS011;19224;52.462;16.898;2024-03-08T09:12:46;33.92;;;18.37;;
32872;SDS011;19224;52.462;16.898;2024-03-08T09:15:18;43.25;;;19.20;;
32872;SDS011;19224;52.462;16.898;2024-03-08T09:17:48;37.03;;;18.37;;
32872;SDS011;19224;52.462;16.898;2024-03-08T09:20:18;35.95;;;17.85;;
32872;SDS011;19224;52.462;16.898;2024-03-08T09:22:49;35.10;;;16.75;;
32872;SDS011;19224;52.462;16.898;2024-03-08T09:25:19;30.52;;;15.28;;
32872;SDS011;19224;52.462;16.898;2024-03-08T09:27:50;38.25;;;15.85;;
32872;SDS011;19224;52.462;16.898;2024-03-08T09:30:22;27.48;;;15.20;;
32872;SDS011;19224;52.462;16.898;2024-03-08T09:32:52;31.50;;;15.18;;
32872;SDS011;19224;52.462;16.898;2024-03-08T09:35:23;33.67;;;14.47;;
32872;SDS011;19224;52.462;16.898;2024-03-08T09:37:57;28.25;;;14.40;;
32872;SDS011;19224;52.462;16.898;2024-03-08T09:40:28;30.02;;;13.55;;
32872;SDS011;19224;52.462;16.898;2024-03-08T09:42:58;26.52;;;13.45;;
32872;SDS011;19224;52.462;16.898;2024-03-08T09:45:31;24.75;;;13.03;;
32872;SDS011;19224;52.462;16.898;2024-03-08T09:48:14;25.45;;;12.98;;
32872;SDS011;19224;52.462;16.898;2024-03-08T09:50:41;25.48;;;13.18;;
32872;SDS011;19224;52.462;16.898;2024-03-08T09:53:12;21.52;;;12.07;;
32872;SDS011;19224;52.462;16.898;2024-03-08T09:55:43;24.25;;;12.30;;
32872;SDS011;19224;52.462;16.898;2024-03-08T09:58:13;20.90;;;11.65;;
32872;SDS011;19224;52.462;16.898;2024-03-08T10:00:47;25.25;;;12.55;;
32872;SDS011;19224;52.462;16.898;2024-03-08T10:03:19;25.05;;;12.20;;
32872;SDS011;19224;52.462;16.898;2024-03-08T10:05:50;23.02;;;11.20;;
32872;SDS011;19224;52.462;16.898;2024-03-08T10:08:22;20.10;;;11.15;;
32872;SDS011;19224;52.462;16.898;2024-03-08T10:10:52;20.08;;;11.50;;
32872;SDS011;19224;52.462;16.898;2024-03-08T10:13:22;24.67;;;11.25;;
32872;SDS011;19224;52.462;16.898;2024-03-08T10:15:56;23.07;;;11.57;;
32872;SDS011;19224;52.462;16.898;2024-03-08T10:18:26;21.42;;;11.88;;
32872;SDS011;19224;52.462;16.898;2024-03-08T10:21:03;33.48;;;13.20;;
32872;SDS011;19224;52.462;16.898;2024-03-08T10:23:41;24.67;;;11.05;;
32872;SDS011;19224;52.462;16.898;2024-03-08T10:26:19;20.48;;;10.75;;
32872;SDS011;19224;52.462;16.898;2024-03-08T10:28:58;20.00;;;11.25;;
32872;SDS011;19224;52.462;16.898;2024-03-08T10:31:29;24.23;;;11.73;;
32872;SDS011;19224;52.462;16.898;2024-03-08T10:34:01;19.10;;;10.85;;
32872;SDS011;19224;52.462;16.898;2024-03-08T10:36:37;23.12;;;10.63;;
32872;SDS011;19224;52.462;16.898;2024-03-08T10:39:24;18.98;;;10.50;;
32872;SDS011;19224;52.462;16.898;2024-03-08T10:42:02;22.22;;;11.45;;
32872;SDS011;19224;52.462;16.898;2024-03-08T10:44:39;19.45;;;10.50;;
32872;SDS011;19224;52.462;16.898;2024-03-08T10:47:25;24.02;;;12.00;;
32872;SDS011;19224;52.462;16.898;2024-03-08T10:49:55;27.13;;;11.65;;
32872;SDS011;19224;52.462;16.898;2024-03-08T10:52:52;26.02;;;11.60;;
32872;SDS011;19224;52.462;16.898;2024-03-08T10:55:24;22.73;;;11.50;;
32872;SDS011;19224;52.462;16.898;2024-03-08T10:57:56;19.70;;;11.60;;
32872;SDS011;19224;52.462;16.898;2024-03-08T11:00:29;19.60;;;11.38;;
32872;SDS011;19224;52.462;16.898;2024-03-08T11:03:00;21.52;;;11.57;;
32872;SDS011;19224;52.462;16.898;2024-03-08T11:05:36;25.17;;;11.75;;
32872;SDS011;19224;52.462;16.898;2024-03-08T11:08:17;25.40;;;11.93;;
32872;SDS011;19224;52.462;16.898;2024-03-08T11:10:54;19.60;;;11.75;;
32872;SDS011;19224;52.462;16.898;2024-03-08T11:13:36;24.72;;;11.83;;
32872;SDS011;19224;52.462;16.898;2024-03-08T11:16:11;28.77;;;12.98;;
32872;SDS011;19224;52.462;16.898;2024-03-08T11:18:54;21.07;;;10.75;;
32872;SDS011;19224;52.462;16.898;2024-03-08T11:21:43;19.27;;;11.12;;
32872;SDS011;19224;52.462;16.898;2024-03-08T11:24:13;22.17;;;10.55;;
32872;SDS011;19224;52.462;16.898;2024-03-08T11:26:45;18.87;;;10.38;;
32872;SDS011;19224;52.462;16.898;2024-03-08T11:32:09;21.15;;;10.78;;
32872;SDS011;19224;52.462;16.898;2024-03-08T11:34:49;16.65;;;9.65;;
32872;SDS011;19224;52.462;16.898;2024-03-08T11:37:25;20.95;;;10.45;;
32872;SDS011;19224;52.462;16.898;2024-03-08T11:39:59;18.60;;;9.88;;
32872;SDS011;19224;52.462;16.898;2024-03-08T11:42:35;18.45;;;9.98;;
32872;SDS011;19224;52.462;16.898;2024-03-08T11:45:12;20.43;;;11.45;;
32872;SDS011;19224;52.462;16.898;2024-03-08T11:47:45;24.02;;;11.05;;
32872;SDS011;19224;52.462;16.898;2024-03-08T11:50:16;21.33;;;11.63;;
32872;SDS011;19224;52.462;16.898;2024-03-08T11:52:50;23.07;;;10.90;;
32872;SDS011;19224;52.462;16.898;2024-03-08T11:55:22;22.02;;;11.10;;
32872;SDS011;19224;52.462;16.898;2024-03-08T11:57:59;19.57;;;10.78;;
32872;SDS011;19224;52.462;16.898;2024-03-08T12:00:35;18.57;;;10.43;;
32872;SDS011;19224;52.462;16.898;2024-03-08T12:03:13;19.67;;;11.35;;
32872;SDS011;19224;52.462;16.898;2024-03-08T12:05:52;17.92;;;9.95;;
32872;SDS011;19224;52.462;16.898;2024-03-08T12:08:20;23.05;;;10.10;;
32872;SDS011;19224;52.462;16.898;2024-03-08T12:10:51;22.67;;;10.38;;
32872;SDS011;19224;52.462;16.898;2024-03-08T12:13:23;16.30;;;9.58;;
32872;SDS011;19224;52.462;16.898;2024-03-08T12:15:57;18.65;;;10.43;;
32872;SDS011;19224;52.462;16.898;2024-03-08T12:18:28;20.27;;;10.32;;
32872;SDS011;19224;52.462;16.898;2024-03-08T12:21:09;17.50;;;10.05;;
32872;SDS011;19224;52.462;16.898;2024-03-08T12:24:11;20.25;;;10.55;;
32872;SDS011;19224;52.462;16.898;2024-03-08T12:26:38;23.45;;;10.35;;
32872;SDS011;19224;52.462;16.898;2024-03-08T12:29:16;18.00;;;10.00;;
32872;SDS011;19224;52.462;16.898;2024-03-08T12:31:58;23.90;;;10.35;;
32872;SDS011;19224;52.462;16.898;2024-03-08T12:34:29;18.27;;;10.05;;
32872;SDS011;19224;52.462;16.898;2024-03-08T12:37:00;16.12;;;10.23;;
32872;SDS011;19224;52.462;16.898;2024-03-08T12:39:32;19.23;;;10.48;;
32872;SDS011;19224;52.462;16.898;2024-03-08T12:42:03;16.75;;;9.63;;
32872;SDS011;19224;52.462;16.898;2024-03-08T12:44:36;24.00;;;10.78;;
32872;SDS011;19224;52.462;16.898;2024-03-08T12:47:11;20.32;;;10.60;;
32872;SDS011;19224;52.462;16.898;2024-03-08T12:49:41;17.20;;;10.08;;
32872;SDS011;19224;52.462;16.898;2024-03-08T12:52:15;16.90;;;9.78;;
32872;SDS011;19224;52.462;16.898;2024-03-08T12:54:49;17.30;;;9.33;;
32872;SDS011;19224;52.462;16.898;2024-03-08T12:57:24;38.33;;;17.30;;
32872;SDS011;19224;52.462;16.898;2024-03-08T12:59:57;23.30;;;11.05;;
32872;SDS011;19224;52.462;16.898;2024-03-08T13:02:28;18.25;;;10.48;;
32872;SDS011;19224;52.462;16.898;2024-03-08T13:05:00;18.57;;;9.68;;
32872;SDS011;19224;52.462;16.898;2024-03-08T13:07:32;22.15;;;10.55;;
32872;SDS011;19224;52.462;16.898;2024-03-08T13:10:05;19.73;;;9.55;;
32872;SDS011;19224;52.462;16.898;2024-03-08T13:12:37;24.10;;;10.28;;
32872;SDS011;19224;52.462;16.898;2024-03-08T13:15:07;23.30;;;10.45;;
32872;SDS011;19224;52.462;16.898;2024-03-08T13:17:52;18.60;;;9.98;;
32872;SDS011;19224;52.462;16.898;2024-03-08T13:20:18;16.85;;;9.43;;
32872;SDS011;19224;52.462;16.898;2024-03-08T13:22:50;20.20;;;10.23;;
32872;SDS011;19224;52.462;16.898;2024-03-08T13:25:20;34.30;;;11.25;;
32872;SDS011;19224;52.462;16.898;2024-03-08T13:27:52;18.35;;;10.43;;
32872;SDS011;19224;52.462;16.898;2024-03-08T13:30:27;18.62;;;10.72;;
32872;SDS011;19224;52.462;16.898;2024-03-08T13:33:00;19.17;;;10.88;;
32872;SDS011;19224;52.462;16.898;2024-03-08T13:35:37;17.52;;;10.18;;
32872;SDS011;19224;52.462;16.898;2024-03-08T13:38:09;23.02;;;9.93;;
32872;SDS011;19224;52.462;16.898;2024-03-08T13:40:42;19.48;;;10.35;;
32872;SDS011;19224;52.462;16.898;2024-03-08T13:43:18;16.52;;;9.78;;
32872;SDS011;19224;52.462;16.898;2024-03-08T13:45:55;23.32;;;9.63;;
32872;SDS011;19224;52.462;16.898;2024-03-08T13:48:30;15.32;;;9.13;;
32872;SDS011;19224;52.462;16.898;2024-03-08T13:51:01;19.55;;;9.55;;
32872;SDS011;19224;52.462;16.898;2024-03-08T13:53:34;19.67;;;9.93;;
32872;SDS011;19224;52.462;16.898;2024-03-08T13:56:07;22.02;;;9.80;;
32872;SDS011;19224;52.462;16.898;2024-03-08T13:58:39;15.53;;;9.10;;
32872;SDS011;19224;52.462;16.898;2024-03-08T14:01:12;17.02;;;9.80;;
32872;SDS011;19224;52.462;16.898;2024-03-08T14:03:44;22.32;;;9.25;;
32872;SDS011;19224;52.462;16.898;2024-03-08T14:06:15;15.93;;;9.43;;
32872;SDS011;19224;52.462;16.898;2024-03-08T14:08:46;17.23;;;9.85;;
32872;SDS011;19224;52.462;16.898;2024-03-08T14:11:16;22.48;;;10.05;;
32872;SDS011;19224;52.462;16.898;2024-03-08T14:13:49;27.13;;;10.82;;
32872;SDS011;19224;52.462;16.898;2024-03-08T14:16:20;18.23;;;10.40;;
32872;SDS011;19224;52.462;16.898;2024-03-08T14:18:54;19.12;;;10.18;;
32872;SDS011;19224;52.462;16.898;2024-03-08T14:21:25;22.10;;;10.88;;
32872;SDS011;19224;52.462;16.898;2024-03-08T14:23:55;15.75;;;9.80;;
32872;SDS011;19224;52.462;16.898;2024-03-08T14:26:25;28.23;;;10.50;;
32872;SDS011;19224;52.462;16.898;2024-03-08T14:28:56;22.95;;;10.20;;
32872;SDS011;19224;52.462;16.898;2024-03-08T14:31:28;19.85;;;9.75;;
32872;SDS011;19224;52.462;16.898;2024-03-08T14:34:02;18.40;;;9.40;;
32872;SDS011;19224;52.462;16.898;2024-03-08T14:36:40;20.88;;;9.18;;
32872;SDS011;19224;52.462;16.898;2024-03-08T14:39:11;22.85;;;9.20;;
32872;SDS011;19224;52.462;16.898;2024-03-08T14:41:45;17.12;;;9.43;;
32872;SDS011;19224;52.462;16.898;2024-03-08T14:44:15;19.85;;;8.73;;
32872;SDS011;19224;52.462;16.898;2024-03-08T14:46:46;18.23;;;9.93;;